Time;durP1;ratioP1;P1;durP2;ratioP2;P2;SDS_P1;SDS_P2;PMS_P1;PMS_P2;Temp;Humidity;BMP_temperature;BMP_pressure;BME280_temperature;BME280_humidity;BME280_pressure;Samples;Min_cycle;Max_cycle;Signal;HPM_P1;HPM_P2
2022/02/09 00:04:28;;;;;;;6.72;3.75;;;0.60;99.90;;;;;;5075057;28;20058;-73
2022/02/09 00:07:08;;;;;;;7.32;3.90;;;0.60;99.90;;;;;;5094056;28;20040;-73
2022/02/09 00:09:35;;;;;;;7.07;4.00;;;0.60;99.90;;;;;;5075382;28;20599;-73
2022/02/09 00:12:14;;;;;;;7.50;4.07;;;0.60;99.90;;;;;;5093524;28;20112;-73
2022/02/09 00:15:11;;;;;;;6.30;4.10;;;0.50;99.90;;;;;;5075183;28;20047;-73
2022/02/09 00:18:04;;;;;;;10.23;7.05;;;0.50;99.90;;;;;;5072509;28;20044;-73
2022/02/09 00:34:47;;;;;;;7.15;5.70;;;0.20;99.90;;;;;;5091735;28;20036;-73
2022/02/09 00:42:59;;;;;;;6.68;4.10;;;0.20;99.90;;;;;;5092103;28;20048;-73
2022/02/09 00:59:55;;;;;;;5.57;3.95;;;0.00;99.90;;;;;;5093301;28;20040;-73
2022/02/09 01:39:24;;;;;;;10.52;4.28;;;-0.10;99.90;;;;;;5033461;28;20054;-73
2022/02/09 01:56:03;;;;;;;7.53;3.90;;;-0.20;99.90;;;;;;5081945;28;20071;-73
2022/02/09 01:58:31;;;;;;;4.38;3.03;;;-0.20;99.90;;;;;;5074148;28;20123;-73
2022/02/09 02:00:58;;;;;;;6.53;3.42;;;-0.20;99.90;;;;;;5091630;28;20123;-73
2022/02/09 02:03:29;;;;;;;4.88;2.90;;;-0.20;99.90;;;;;;5091158;28;20125;-72
2022/02/09 02:06:01;;;;;;;8.48;5.05;;;-0.20;99.90;;;;;;5096235;28;20119;-73
2022/02/09 02:08:33;;;;;;;4.85;3.13;;;-0.10;99.90;;;;;;5094691;28;20451;-72
2022/02/09 02:19:57;;;;;;;6.60;3.55;;;-0.20;99.90;;;;;;5071441;28;20040;-73
2022/02/09 02:30:10;;;;;;;4.70;3.03;;;-0.30;99.90;;;;;;5077611;28;20059;-73
2022/02/09 02:43:32;;;;;;;6.97;3.50;;;-0.20;99.90;;;;;;5090337;28;20483;-73
2022/02/09 03:07:48;;;;;;;4.72;3.47;;;-0.20;99.90;;;;;;5090632;28;20040;-73
2022/02/09 03:08:40;;;;;;;5.28;3.30;;;-0.20;99.90;;;;;;5072191;28;20044;-73
2022/02/09 03:14:01;;;;;;;8.38;5.38;;;-0.20;99.90;;;;;;5089754;28;20051;-73
2022/02/09 03:16:38;;;;;;;5.93;4.10;;;-0.20;99.90;;;;;;5072292;28;20479;-73
2022/02/09 03:19:39;;;;;;;9.30;5.25;;;-0.20;99.90;;;;;;5070566;28;20044;-73
2022/02/09 03:52:51;;;;;;;6.45;3.83;;;-0.60;99.90;;;;;;5088699;28;20564;-73
2022/02/09 03:57:45;;;;;;;4.40;3.17;;;-0.60;99.90;;;;;;5088816;28;20392;-72
2022/02/09 04:00:18;;;;;;;4.93;2.83;;;-0.60;99.90;;;;;;5072737;28;20047;-73
2022/02/09 04:02:55;;;;;;;6.75;3.50;;;-0.70;99.90;;;;;;5085492;28;20048;-73
2022/02/09 04:05:27;;;;;;;6.57;3.72;;;-0.70;99.90;;;;;;5089760;28;20040;-73
2022/02/09 04:08:00;;;;;;;7.13;5.25;;;-0.70;99.90;;;;;;5089467;28;20044;-73
2022/02/09 04:10:39;;;;;;;9.80;6.13;;;-0.70;99.90;;;;;;5088714;28;20038;-73
2022/02/09 04:15:58;;;;;;;10.25;6.78;;;-0.70;99.90;;;;;;5071697;28;20055;-73
2022/02/09 04:38:20;;;;;;;5.05;3.60;;;-0.90;99.90;;;;;;5094364;28;20032;-73
2022/02/09 04:43:37;;;;;;;7.15;3.47;;;-1.00;99.90;;;;;;5093535;28;20127;-73
2022/02/09 05:27:50;;;;;;;6.67;3.07;;;-1.10;99.90;;;;;;5093056;28;20562;-74
2022/02/09 05:30:22;;;;;;;4.43;2.60;;;-1.20;99.90;;;;;;5083359;28;20403;-72
2022/02/09 05:32:54;;;;;;;3.72;2.83;;;-1.10;99.90;;;;;;5060673;28;20117;-73
2022/02/09 05:35:26;;;;;;;4.40;3.15;;;-1.20;99.90;;;;;;5061766;28;20410;-73
2022/02/09 05:37:58;;;;;;;3.75;2.72;;;-1.20;99.90;;;;;;5092575;28;20062;-73
2022/02/09 05:40:30;;;;;;;5.15;3.22;;;-1.20;99.90;;;;;;5056831;28;20413;-74
2022/02/09 05:43:02;;;;;;;5.05;2.75;;;-1.20;99.90;;;;;;5057671;28;20051;-73
2022/02/09 05:51:39;;;;;;;4.43;2.90;;;-1.20;99.90;;;;;;5091952;28;20434;-73
2022/02/09 05:55:06;;;;;;;5.00;3.05;;;-1.20;99.90;;;;;;5091308;28;20044;-73
2022/02/09 05:57:00;;;;;;;3.92;2.97;;;-1.20;99.90;;;;;;5084172;28;20052;-73
2022/02/09 05:59:28;;;;;;;5.13;3.72;;;-1.20;99.90;;;;;;5073951;28;20063;-73
2022/02/09 06:01:56;;;;;;;4.88;3.58;;;-1.20;99.90;;;;;;5091897;28;20040;-73
2022/02/09 06:04:29;;;;;;;5.55;3.78;;;-1.30;99.90;;;;;;5072261;28;20044;-73
2022/02/09 06:07:01;;;;;;;4.78;3.05;;;-1.30;99.90;;;;;;5091545;28;20063;-73
2022/02/09 06:09:35;;;;;;;5.75;3.42;;;-1.30;99.90;;;;;;5091665;28;20051;-72
2022/02/09 06:12:14;;;;;;;;;;;-1.30;99.90;;;;;;5074982;28;20040;-73
2022/02/09 06:20:24;;;;;;;4.53;2.50;;;-1.40;99.90;;;;;;5075215;28;20044;-73
2022/02/09 06:22:56;;;;;;;5.75;2.50;;;-1.40;99.90;;;;;;5082482;28;20050;-73
2022/02/09 06:25:30;;;;;;;5.95;2.42;;;-1.40;99.90;;;;;;5074478;28;20042;-73
2022/02/09 06:28:01;;;;;;;3.88;2.67;;;-1.50;99.90;;;;;;5092187;28;20123;-73
2022/02/09 06:30:33;;;;;;;3.50;2.45;;;-1.50;99.90;;;;;;5090088;28;20068;-72
2022/02/09 06:33:05;;;;;;;4.18;2.60;;;-1.50;99.90;;;;;;5064050;28;20055;-73
2022/02/09 06:35:33;;;;;;;4.32;2.97;;;-1.50;99.90;;;;;;5089730;28;20119;-73
2022/02/09 06:38:04;;;;;;;4.43;3.22;;;-1.50;99.90;;;;;;5089231;28;20044;-73
2022/02/09 06:40:42;;;;;;;5.57;2.90;;;-1.50;99.90;;;;;;5082744;28;20051;-73
2022/02/09 06:43:14;;;;;;;8.35;3.17;;;-1.50;99.90;;;;;;5053569;28;20071;-73
2022/02/09 06:45:46;;;;;;;4.93;2.42;;;-1.50;99.90;;;;;;5070580;28;20392;-73
2022/02/09 06:48:19;;;;;;;4.32;3.03;;;-1.50;99.90;;;;;;5062403;28;20051;-73
2022/02/09 06:50:51;;;;;;;5.22;3.78;;;-1.50;99.90;;;;;;5092402;28;20522;-73
2022/02/09 06:55:59;;;;;;;4.28;2.85;;;-1.60;99.90;;;;;;5073841;28;20860;-73
2022/02/09 07:01:07;;;;;;;2.83;2.50;;;-1.50;99.90;;;;;;5076158;28;20119;-72
2022/02/09 07:03:39;;;;;;;4.32;2.90;;;-1.50;99.90;;;;;;5055724;28;20044;-73
2022/02/09 07:06:11;;;;;;;4.00;3.00;;;-1.50;99.90;;;;;;5071523;28;20071;-73
2022/02/09 07:08:38;;;;;;;6.97;4.18;;;-1.50;99.90;;;;;;5088213;28;20116;-73
2022/02/09 07:11:05;;;;;;;6.10;4.20;;;-1.40;99.90;;;;;;5072278;28;20048;-73
2022/02/09 07:13:37;;;;;;;4.97;3.80;;;-1.40;99.90;;;;;;5072101;28;20071;-74
2022/02/09 07:16:09;;;;;;;4.35;3.08;;;-1.40;99.90;;;;;;5093570;28;20567;-73
2022/02/09 07:18:41;;;;;;;5.78;3.15;;;-1.40;99.90;;;;;;5079023;28;20054;-74
2022/02/09 07:21:18;;;;;;;4.95;3.30;;;-1.40;99.90;;;;;;5063032;28;20044;-72
2022/02/09 07:23:52;;;;;;;5.97;4.10;;;-1.40;99.90;;;;;;5088078;28;20036;-73
2022/02/09 07:27:23;;;;;;;8.23;4.82;;;-1.40;99.90;;;;;;5090692;28;20044;-73
2022/02/09 07:29:23;;;;;;;7.40;4.82;;;-1.40;99.90;;;;;;5089565;28;20130;-73
2022/02/09 07:31:54;;;;;;;7.07;5.20;;;-1.30;99.90;;;;;;5058495;28;20127;-73
2022/02/09 07:34:26;;;;;;;8.10;5.38;;;-1.30;99.90;;;;;;5071168;28;20047;-73
2022/02/09 07:36:53;;;;;;;8.18;5.00;;;-1.30;99.90;;;;;;5070496;28;20410;-73
2022/02/09 07:39:25;;;;;;;13.25;6.53;;;-1.30;99.90;;;;;;5089102;28;20048;-73
2022/02/09 07:41:57;;;;;;;7.15;4.82;;;-1.30;99.90;;;;;;5055704;28;20138;-73
2022/02/09 07:44:43;;;;;;;6.80;4.13;;;-1.30;99.90;;;;;;5057171;28;20063;-73
2022/02/09 07:47:39;;;;;;;5.20;3.70;;;-1.20;99.90;;;;;;5078255;28;20073;-73
2022/02/09 07:52:51;;;;;;;7.15;3.55;;;-1.10;99.90;;;;;;5089717;28;20071;-73
2022/02/09 07:55:18;;;;;;;5.35;3.05;;;-1.00;99.90;;;;;;5088551;28;20576;-73
2022/02/09 07:57:50;;;;;;;4.35;2.83;;;-0.90;99.90;;;;;;5073602;28;20040;-73
2022/02/09 08:00:21;;;;;;;6.53;3.20;;;-0.90;99.90;;;;;;5085480;28;20040;-73
2022/02/09 08:02:52;;;;;;;4.55;3.33;;;-0.80;99.90;;;;;;5089812;28;20036;-73
2022/02/09 08:05:24;;;;;;;8.30;3.88;;;-0.70;99.90;;;;;;5089282;28;20119;-72
2022/02/09 08:07:56;;;;;;;7.22;4.38;;;-0.60;99.90;;;;;;5091175;28;20122;-72
2022/02/09 08:10:30;;;;;;;8.30;4.40;;;-0.60;99.90;;;;;;5084916;28;20567;-73
2022/02/09 08:24:15;;;;;;;2.65;2.03;;;-0.40;99.90;;;;;;5078959;28;20050;-73
2022/02/09 08:26:56;;;;;;;3.75;2.53;;;-0.30;99.90;;;;;;5077671;28;20040;-73
2022/02/09 08:29:42;;;;;;;3.17;2.10;;;-0.30;99.90;;;;;;5084542;28;20118;-73
2022/02/09 08:34:58;;;;;;;4.53;2.70;;;-0.10;99.90;;;;;;5104624;28;20032;-73
2022/02/09 08:37:31;;;;;;;3.90;2.60;;;0.00;99.90;;;;;;5081816;28;20133;-73
2022/02/09 08:40:05;;;;;;;5.05;2.60;;;0.20;99.90;;;;;;5080368;28;20046;-75
2022/02/09 08:42:33;;;;;;;5.72;2.42;;;0.40;99.90;;;;;;5076270;28;20072;-73
2022/02/09 08:45:08;;;;;;;4.38;2.70;;;0.50;99.90;;;;;;5086270;28;20040;-73
2022/02/09 08:47:40;;;;;;;4.50;3.05;;;0.70;99.90;;;;;;5071743;28;20047;-72
2022/02/09 08:50:12;;;;;;;6.88;3.13;;;0.80;99.90;;;;;;5073569;28;20051;-72
2022/02/09 08:52:43;;;;;;;34.08;21.83;;;0.90;99.90;;;;;;5072443;28;20478;-73
2022/02/09 08:55:16;;;;;;;25.85;17.75;;;1.00;99.90;;;;;;5074876;28;20054;-72
2022/02/09 08:57:48;;;;;;;15.35;11.30;;;1.20;99.90;;;;;;5097365;28;20036;-72
2022/02/09 09:00:30;;;;;;;14.30;10.32;;;1.30;99.90;;;;;;5091311;28;20040;-73
2022/02/09 09:03:12;;;;;;;11.98;7.80;;;1.40;99.90;;;;;;5092659;28;20040;-72
2022/02/09 09:05:47;;;;;;;9.10;7.05;;;1.40;99.90;;;;;;5072184;28;20139;-72
2022/02/09 10:33:10;;;;;;;6.78;2.30;;;5.80;99.90;;;;;;5097805;28;20044;-73
2022/02/09 10:35:54;;;;;;;3.95;1.90;;;5.90;99.90;;;;;;5066669;28;20406;-73
2022/02/09 10:38:35;;;;;;;;;;;6.00;99.90;;;;;;5064271;28;20703;-74
2022/02/09 10:41:11;;;;;;;2.67;1.95;;;6.00;99.90;;;;;;5085358;28;19920;-74
2022/02/09 10:43:40;;;;;;;3.55;2.28;;;6.10;99.90;;;;;;5091769;28;20050;-73
2022/02/09 10:46:19;;;;;;;2.25;1.73;;;6.10;99.90;;;;;;5105287;28;20040;-74
2022/02/09 10:48:55;;;;;;;3.97;1.88;;;6.20;99.90;;;;;;5083515;28;20043;-74
2022/02/09 10:51:45;;;;;;;2.63;2.05;;;6.30;99.90;;;;;;5093475;28;20031;-74
2022/02/09 10:54:23;;;;;;;5.88;2.20;;;6.40;99.90;;;;;;5085928;28;20131;-73
2022/02/09 10:57:07;;;;;;;3.63;1.97;;;6.50;99.90;;;;;;5095087;28;20042;-73
2022/02/09 10:59:37;;;;;;;10.10;2.90;;;6.60;99.90;;;;;;5093949;28;20429;-74
2022/02/09 11:02:05;;;;;;;3.78;2.30;;;6.70;99.90;;;;;;5079999;28;20471;-73
2022/02/09 11:04:33;;;;;;;3.42;2.25;;;6.80;99.90;;;;;;5063032;28;20127;-73
2022/02/09 11:07:05;;;;;;;4.18;2.17;;;6.90;99.90;;;;;;5072296;28;20118;-74
2022/02/09 11:09:37;;;;;;;4.07;2.50;;;6.90;99.90;;;;;;5073873;28;20414;-74
2022/02/09 11:12:13;;;;;;;3.88;2.40;;;7.00;99.90;;;;;;5076635;28;20051;-73
2022/02/09 11:14:45;;;;;;;3.83;2.08;;;7.10;99.90;;;;;;5073597;28;20040;-74
2022/02/09 11:17:19;;;;;;;4.18;2.20;;;7.20;99.90;;;;;;5076355;28;20040;-73
2022/02/09 11:19:52;;;;;;;4.13;2.13;;;7.30;99.90;;;;;;5062372;28;20402;-73
2022/02/09 11:22:34;;;;;;;3.80;2.35;;;7.40;99.90;;;;;;5072792;28;20040;-73
2022/02/09 11:25:28;;;;;;;3.65;1.75;;;7.50;99.90;;;;;;5091136;28;20123;-73
2022/02/09 11:28:17;;;;;;;8.30;2.10;;;7.50;99.90;;;;;;5053439;28;20040;-73
2022/02/09 11:31:04;;;;;;;3.45;2.20;;;7.70;99.90;;;;;;5086244;28;20119;-73
2022/02/09 11:33:55;;;;;;;5.35;2.55;;;7.70;99.90;;;;;;5056108;28;20135;-74
2022/02/09 11:39:10;;;;;;;7.43;3.95;;;7.90;99.90;;;;;;5081594;28;20036;-74
2022/02/09 11:41:59;;;;;;;2.50;1.83;;;7.90;99.90;;;;;;5050118;28;20036;-73
2022/02/09 11:47:40;;;;;;;2.65;1.70;;;8.10;99.90;;;;;;5088852;28;20114;-73
2022/02/09 12:01:22;;;;;;;2.92;1.92;;;8.70;99.90;;;;;;5087946;28;20463;-73
2022/02/09 12:12:20;;;;;;;4.22;1.90;;;8.90;99.90;;;;;;5089984;28;20040;-73
2022/02/09 12:15:10;;;;;;;3.45;1.50;;;9.00;99.90;;;;;;5071729;28;20499;-73
2022/02/09 12:20:31;;;;;;;3.35;1.80;;;9.20;99.90;;;;;;5088305;28;20575;-73
2022/02/09 12:25:41;;;;;;;3.38;1.90;;;9.40;99.90;;;;;;5072416;28;20410;-73
2022/02/09 12:28:22;;;;;;;4.90;1.85;;;9.50;99.90;;;;;;5088748;28;20062;-73
2022/02/09 12:30:49;;;;;;;2.90;1.77;;;9.60;99.90;;;;;;5088974;28;20046;-74
2022/02/09 12:33:25;;;;;;;2.60;1.60;;;9.60;99.90;;;;;;5089952;28;20038;-74
2022/02/09 12:35:52;;;;;;;4.20;1.80;;;9.70;99.90;;;;;;5072743;28;20044;-74
2022/02/09 12:38:28;;;;;;;4.00;1.90;;;9.80;99.90;;;;;;5090261;28;20036;-73
2022/02/09 12:41:17;;;;;;;3.15;2.00;;;9.90;99.90;;;;;;5090237;28;20046;-74
2022/02/09 12:44:07;;;;;;;2.08;1.85;;;9.90;99.90;;;;;;5091725;28;20036;-74
2022/02/09 12:46:45;;;;;;;2.15;1.45;;;9.90;99.90;;;;;;5075296;28;20050;-73
2022/02/09 12:49:18;;;;;;;2.33;1.63;;;10.00;99.90;;;;;;5075557;28;20054;-73
2022/02/09 12:51:48;;;;;;;2.85;1.50;;;10.00;99.90;;;;;;5071369;28;20202;-73
2022/02/09 12:54:19;;;;;;;3.30;1.55;;;10.10;99.90;;;;;;5073604;28;20045;-74
2022/02/09 12:56:54;;;;;;;2.17;1.65;;;10.20;99.90;;;;;;5074726;28;20046;-73
2022/02/09 12:59:22;;;;;;;5.72;1.60;;;10.30;99.90;;;;;;5087268;28;20113;-74
2022/02/09 13:01:56;;;;;;;2.47;1.40;;;10.30;99.90;;;;;;5091403;28;20040;-73
2022/02/09 13:04:38;;;;;;;3.20;1.90;;;10.30;99.90;;;;;;5074069;28;20048;-74
2022/02/09 13:07:14;;;;;;;5.65;2.00;;;10.30;99.90;;;;;;5093217;28;20036;-74
2022/02/09 13:09:51;;;;;;;3.13;1.35;;;10.40;99.90;;;;;;5089992;28;20028;-74
2022/02/09 13:12:27;;;;;;;4.63;1.67;;;10.50;99.90;;;;;;5078064;28;20032;-74
2022/02/09 13:15:03;;;;;;;2.17;1.30;;;10.50;99.90;;;;;;5075290;28;20517;-73
2022/02/09 13:18:08;;;;;;;2.72;1.60;;;10.60;99.90;;;;;;5072368;28;20036;-74
2022/02/09 14:07:38;;;;;;;4.10;1.92;;;11.30;99.90;;;;;;5084787;28;20149;-74
2022/02/09 14:18:20;;;;;;;4.00;1.45;;;11.30;99.90;;;;;;5092784;28;20024;-74
2022/02/09 14:32:19;;;;;;;4.13;2.00;;;11.30;99.90;;;;;;5071093;28;20043;-74
2022/02/09 14:51:34;;;;;;;7.93;2.20;;;11.10;99.90;;;;;;5088464;28;20040;-74
2022/02/09 14:56:54;;;;;;;2.55;1.60;;;11.00;99.90;;;;;;5089751;28;20036;-73
2022/02/09 14:59:48;;;;;;;3.00;1.95;;;11.00;99.90;;;;;;5091265;28;20036;-73
2022/02/09 15:02:36;;;;;;;3.42;2.50;;;11.00;99.90;;;;;;5088871;28;20518;-73
2022/02/09 15:07:41;;;;;;;3.13;1.70;;;11.00;99.90;;;;;;5080019;28;20127;-74
2022/02/09 15:10:16;;;;;;;3.80;1.75;;;11.00;99.90;;;;;;5071980;28;20139;-74
2022/02/09 15:23:18;;;;;;;4.25;1.40;;;10.80;99.90;;;;;;5089191;28;20565;-74
2022/02/09 15:25:53;;;;;;;2.55;1.55;;;10.50;99.90;;;;;;5055650;28;20047;-74
2022/02/09 15:28:25;;;;;;;2.70;1.70;;;10.30;99.90;;;;;;5080703;28;20043;-72
2022/02/09 15:31:05;;;;;;;1.90;1.33;;;10.20;99.90;;;;;;5085906;28;20071;-74
2022/02/09 15:33:44;;;;;;;4.15;1.23;;;10.10;99.90;;;;;;5082842;28;20039;-74
2022/02/09 15:36:25;;;;;;;1.80;1.25;;;9.70;99.90;;;;;;5088244;28;20093;-74
2022/02/09 15:38:57;;;;;;;2.10;1.58;;;9.40;99.90;;;;;;5071411;28;20040;-74
2022/02/09 15:41:32;;;;;;;2.72;1.20;;;9.20;99.90;;;;;;5086926;28;20048;-74
2022/02/09 15:56:14;;;;;;;3.25;1.50;;;9.10;99.90;;;;;;5068259;28;20333;-74
2022/02/09 15:58:56;;;;;;;1.60;1.13;;;7.90;99.90;;;;;;5089994;28;20048;-74
2022/02/09 16:09:33;;;;;;;1.38;1.08;;;7.20;99.90;;;;;;5085326;28;20553;-74
2022/02/09 16:23:12;;;;;;;2.08;1.10;;;6.40;99.90;;;;;;5114202;28;20546;-74
2022/02/09 16:45:32;;;;;;;1.50;1.08;;;5.30;99.90;;;;;;5066081;28;20047;-73
2022/02/09 16:48:02;;;;;;;2.60;1.10;;;5.20;99.90;;;;;;5073166;28;20495;-74
2022/02/09 16:50:38;;;;;;;2.95;1.65;;;5.10;99.90;;;;;;5090227;28;20058;-73
2022/02/09 16:53:23;;;;;;;13.90;1.95;;;5.10;99.90;;;;;;5059363;28;20036;-74
2022/02/09 16:56:18;;;;;;;2.20;1.45;;;4.90;99.90;;;;;;5076147;28;20040;-74
2022/02/09 17:15:37;;;;;;;1.85;1.30;;;4.60;99.90;;;;;;5093667;28;20046;-73
2022/02/09 17:20:55;;;;;;;6.38;3.72;;;4.40;99.90;;;;;;5089442;28;20048;-73
2022/02/09 17:23:27;;;;;;;28.15;13.50;;;4.40;99.90;;;;;;5075006;28;20036;-74
2022/02/09 17:25:53;;;;;;;6.65;4.30;;;4.20;99.90;;;;;;5079164;28;20126;-72
2022/02/09 17:28:26;;;;;;;3.55;2.45;;;4.10;99.90;;;;;;5074132;28;20131;-73
2022/02/09 17:36:20;;;;;;;3.33;2.60;;;4.00;99.90;;;;;;5092706;28;20036;-74
2022/02/09 17:57:55;;;;;;;6.07;3.75;;;3.80;99.90;;;;;;5084243;28;20049;-73
2022/02/09 18:00:22;;;;;;;5.55;3.72;;;3.70;99.90;;;;;;5085603;28;20036;-73
2022/02/09 18:02:52;;;;;;;4.78;3.85;;;3.70;99.90;;;;;;5083336;28;20087;-74
2022/02/09 18:05:42;;;;;;;4.88;3.55;;;3.70;99.90;;;;;;5069267;28;20072;-74
2022/02/09 18:08:19;;;;;;;7.68;4.25;;;3.60;99.90;;;;;;5057340;28;20063;-72
2022/02/09 18:13:49;;;;;;;7.00;4.30;;;3.40;99.90;;;;;;5088527;28;20533;-73
2022/02/09 18:29:59;;;;;;;8.43;5.00;;;2.90;99.90;;;;;;5090899;28;20054;-73
2022/02/09 18:33:08;;;;;;;7.38;4.93;;;2.90;99.90;;;;;;5055091;28;20044;-73
2022/02/09 18:39:02;;;;;;;7.93;5.50;;;2.80;99.90;;;;;;5081988;28;20060;-74
2022/02/09 19:02:59;;;;;;;12.68;7.82;;;2.30;99.90;;;;;;5080608;28;20062;-74
2022/02/09 19:05:39;;;;;;;11.98;7.93;;;2.20;99.90;;;;;;5075445;28;20723;-74
2022/02/09 19:08:23;;;;;;;12.48;7.65;;;2.20;99.90;;;;;;5087959;28;20127;-74
2022/02/09 19:19:51;;;;;;;14.68;7.10;;;2.00;99.90;;;;;;5071778;28;20127;-73
2022/02/09 19:42:39;;;;;;;7.72;5.63;;;2.00;99.90;;;;;;5089623;28;20050;-74
2022/02/09 19:55:38;;;;;;;8.52;5.25;;;1.80;99.90;;;;;;5109331;28;20044;-74
2022/02/09 19:58:10;;;;;;;8.23;5.65;;;1.70;99.90;;;;;;5109237;28;20037;-73
2022/02/09 20:00:42;;;;;;;8.02;5.00;;;1.60;99.90;;;;;;5108736;28;20043;-74
2022/02/09 20:03:16;;;;;;;;;;;1.60;99.90;;;;;;5094043;28;20036;-74
2022/02/09 20:05:48;;;;;;;8.75;5.60;;;1.60;99.90;;;;;;5093256;28;19926;-73
2022/02/09 20:08:19;;;;;;;10.15;6.35;;;1.50;99.90;;;;;;5094326;28;20138;-73
2022/02/09 20:10:51;;;;;;;7.35;5.47;;;1.40;99.90;;;;;;5109032;28;20047;-74
2022/02/09 20:13:18;;;;;;;9.00;5.53;;;1.30;99.90;;;;;;5079960;28;20135;-74
2022/02/09 20:15:45;;;;;;;7.20;5.53;;;1.30;99.90;;;;;;5092202;28;20135;-74
2022/02/09 20:18:13;;;;;;;10.07;5.70;;;1.30;99.90;;;;;;5093677;28;20071;-73
2022/02/09 20:20:45;;;;;;;9.73;5.80;;;1.40;99.90;;;;;;5096276;28;20050;-73
2022/02/09 20:23:13;;;;;;;9.05;6.15;;;1.40;99.90;;;;;;5094851;28;20044;-74
2022/02/09 20:25:40;;;;;;;12.18;6.65;;;1.40;99.90;;;;;;5109471;28;20526;-72
2022/02/09 20:28:08;;;;;;;9.70;6.43;;;1.40;99.90;;;;;;5108927;28;20050;-73
2022/02/09 20:30:48;;;;;;;11.38;6.60;;;1.40;99.90;;;;;;5092098;28;20135;-74
2022/02/09 20:33:24;;;;;;;10.02;5.80;;;1.40;99.90;;;;;;5091711;28;20138;-74
2022/02/09 20:35:58;;;;;;;10.27;5.68;;;1.40;99.90;;;;;;5108522;28;20120;-73
2022/02/09 20:38:31;;;;;;;8.05;5.50;;;1.40;99.90;;;;;;5092492;28;20097;-74
2022/02/09 20:41:07;;;;;;;11.45;5.80;;;1.40;99.90;;;;;;5092745;28;20074;-74
2022/02/09 20:43:44;;;;;;;8.90;5.90;;;1.30;99.90;;;;;;5109113;28;20040;-73
2022/02/09 20:46:12;;;;;;;8.07;5.55;;;1.30;99.90;;;;;;5091908;28;20048;-75
2022/02/09 20:48:45;;;;;;;8.65;6.13;;;1.30;99.90;;;;;;5108819;28;20394;-74
2022/02/09 20:51:12;;;;;;;6.95;5.45;;;1.30;99.90;;;;;;5093909;28;20040;-75
2022/02/09 20:53:44;;;;;;;11.07;5.47;;;1.30;99.90;;;;;;5091314;28;20036;-74
2022/02/09 20:56:12;;;;;;;8.90;5.43;;;1.30;99.90;;;;;;5092335;28;20048;-74
2022/02/09 20:58:42;;;;;;;10.57;6.43;;;1.30;99.90;;;;;;5109552;28;20036;-74
2022/02/09 21:01:19;;;;;;;12.80;6.60;;;1.30;99.90;;;;;;5092395;28;20064;-74
2022/02/09 21:03:58;;;;;;;17.88;10.90;;;1.30;99.90;;;;;;5091089;28;20509;-74
2022/02/09 21:06:52;;;;;;;19.35;10.77;;;1.30;99.90;;;;;;5108636;28;20548;-74
2022/02/09 21:09:38;;;;;;;27.83;12.45;;;1.30;99.90;;;;;;5093647;28;20115;-74
2022/02/09 21:12:38;;;;;;;22.45;12.48;;;1.30;99.90;;;;;;5092190;28;20048;-74
2022/02/09 21:20:49;;;;;;;22.17;13.63;;;1.20;99.90;;;;;;5085339;28;20036;-74
2022/02/09 21:26:32;;;;;;;19.55;10.82;;;1.10;99.90;;;;;;5073016;28;20044;-74
2022/02/09 21:45:51;;;;;;;8.38;5.65;;;0.70;99.90;;;;;;5074786;28;20573;-73
2022/02/09 21:56:44;;;;;;;9.68;5.80;;;0.70;99.90;;;;;;5088183;28;20063;-73
2022/02/09 22:06:11;;;;;;;9.00;5.90;;;0.70;99.90;;;;;;5073818;28;20094;-72
2022/02/09 22:26:29;;;;;;;17.73;8.65;;;0.50;99.90;;;;;;5090953;28;20044;-73
2022/02/09 22:29:00;;;;;;;20.00;9.43;;;0.50;99.90;;;;;;5090952;28;20044;-72
2022/02/09 22:45:38;;;;;;;25.95;12.35;;;0.40;99.90;;;;;;5092316;28;20384;-73
2022/02/09 22:49:01;;;;;;;26.67;12.13;;;0.40;99.90;;;;;;5074806;28;20147;-72
2022/02/09 22:56:41;;;;;;;18.15;11.55;;;0.30;99.90;;;;;;5090406;28;20052;-72
2022/02/09 22:59:17;;;;;;;18.13;11.48;;;0.30;99.90;;;;;;5073556;28;20548;-73
2022/02/09 23:01:54;;;;;;;17.90;11.15;;;0.30;99.90;;;;;;5091376;28;20051;-73
2022/02/09 23:04:38;;;;;;;12.73;8.77;;;0.20;99.90;;;;;;5056906;28;20048;-73
2022/02/09 23:12:50;;;;;;;9.55;6.05;;;0.20;99.90;;;;;;5069185;28;20150;-72
2022/02/09 23:24:25;;;;;;;9.50;6.20;;;0.10;99.90;;;;;;5074487;28;20082;-72
2022/02/09 23:27:13;;;;;;;8.88;5.15;;;0.10;99.90;;;;;;5066552;28;20623;-73
